sensor_id;sensor_type;location;lat;lon;timestamp;P1;durP1;ratioP1;P2;durP2;ratioP2
21215;SDS011;10765;50.954;5.322;2023-04-24T00:01:05;10.70;;;8.07;;
21215;SDS011;10765;50.954;5.322;2023-04-24T00:03:32;11.20;;;8.90;;
21215;SDS011;10765;50.954;5.322;2023-04-24T00:05:59;12.07;;;9.20;;
21215;SDS011;10765;50.954;5.322;2023-04-24T00:08:27;11.83;;;10.03;;
21215;SDS011;10765;50.954;5.322;2023-04-24T00:10:54;11.13;;;10.13;;
21215;SDS011;10765;50.954;5.322;2023-04-24T00:13:21;11.63;;;10.13;;
21215;SDS011;10765;50.954;5.322;2023-04-24T00:15:49;12.57;;;10.20;;
21215;SDS011;10765;50.954;5.322;2023-04-24T00:18:16;13.53;;;10.97;;
21215;SDS011;10765;50.954;5.322;2023-04-24T00:20:43;12.07;;;10.67;;
21215;SDS011;10765;50.954;5.322;2023-04-24T00:23:11;13.13;;;10.33;;
21215;SDS011;10765;50.954;5.322;2023-04-24T00:25:38;14.17;;;10.40;;
21215;SDS011;10765;50.954;5.322;2023-04-24T00:28:06;13.90;;;11.10;;
21215;SDS011;10765;50.954;5.322;2023-04-24T00:30:32;13.10;;;10.50;;
21215;SDS011;10765;50.954;5.322;2023-04-24T00:33:01;13.20;;;10.73;;
21215;SDS011;10765;50.954;5.322;2023-04-24T00:35:28;14.10;;;11.30;;
21215;SDS011;10765;50.954;5.322;2023-04-24T00:37:54;15.10;;;11.60;;
21215;SDS011;10765;50.954;5.322;2023-04-24T00:40:21;14.97;;;12.03;;
21215;SDS011;10765;50.954;5.322;2023-04-24T00:42:48;15.53;;;11.83;;
21215;SDS011;10765;50.954;5.322;2023-04-24T00:45:15;16.43;;;12.07;;
21215;SDS011;10765;50.954;5.322;2023-04-24T00:47:43;17.37;;;12.77;;
21215;SDS011;10765;50.954;5.322;2023-04-24T00:50:13;16.57;;;11.80;;
21215;SDS011;10765;50.954;5.322;2023-04-24T00:52:41;14.90;;;12.57;;
21215;SDS011;10765;50.954;5.322;2023-04-24T00:55:08;15.33;;;12.77;;
21215;SDS011;10765;50.954;5.322;2023-04-24T00:57:35;16.80;;;12.40;;
21215;SDS011;10765;50.954;5.322;2023-04-24T01:00:02;17.03;;;13.27;;
21215;SDS011;10765;50.954;5.322;2023-04-24T01:02:35;16.80;;;13.83;;
21215;SDS011;10765;50.954;5.322;2023-04-24T01:05:05;18.13;;;13.57;;
21215;SDS011;10765;50.954;5.322;2023-04-24T01:07:34;17.17;;;12.87;;
21215;SDS011;10765;50.954;5.322;2023-04-24T01:10:02;15.77;;;13.23;;
21215;SDS011;10765;50.954;5.322;2023-04-24T01:12:30;16.63;;;12.43;;
21215;SDS011;10765;50.954;5.322;2023-04-24T01:14:57;15.30;;;13.70;;
21215;SDS011;10765;50.954;5.322;2023-04-24T01:17:24;16.63;;;13.37;;
21215;SDS011;10765;50.954;5.322;2023-04-24T01:19:51;15.57;;;13.23;;
21215;SDS011;10765;50.954;5.322;2023-04-24T01:22:20;17.43;;;13.37;;
21215;SDS011;10765;50.954;5.322;2023-04-24T01:24:47;15.13;;;13.07;;
21215;SDS011;10765;50.954;5.322;2023-04-24T01:27:15;18.87;;;12.87;;
21215;SDS011;10765;50.954;5.322;2023-04-24T01:29:42;16.57;;;13.20;;
21215;SDS011;10765;50.954;5.322;2023-04-24T01:32:09;16.27;;;13.33;;
21215;SDS011;10765;50.954;5.322;2023-04-24T01:34:36;16.23;;;12.63;;
21215;SDS011;10765;50.954;5.322;2023-04-24T01:37:03;15.50;;;12.53;;
21215;SDS011;10765;50.954;5.322;2023-04-24T01:39:32;15.63;;;12.60;;
21215;SDS011;10765;50.954;5.322;2023-04-24T01:41:59;15.77;;;12.30;;
21215;SDS011;10765;50.954;5.322;2023-04-24T01:44:27;15.07;;;13.37;;
21215;SDS011;10765;50.954;5.322;2023-04-24T01:46:54;17.03;;;13.43;;
21215;SDS011;10765;50.954;5.322;2023-04-24T01:49:21;18.77;;;12.33;;
21215;SDS011;10765;50.954;5.322;2023-04-24T01:51:48;19.07;;;13.07;;
21215;SDS011;10765;50.954;5.322;2023-04-24T01:54:15;16.33;;;12.90;;
21215;SDS011;10765;50.954;5.322;2023-04-24T01:56:43;16.73;;;12.57;;
21215;SDS011;10765;50.954;5.322;2023-04-24T01:59:11;14.73;;;13.03;;
21215;SDS011;10765;50.954;5.322;2023-04-24T02:01:38;16.23;;;12.73;;
21215;SDS011;10765;50.954;5.322;2023-04-24T02:04:06;15.07;;;12.23;;
21215;SDS011;10765;50.954;5.322;2023-04-24T02:06:34;13.90;;;12.43;;
21215;SDS011;10765;50.954;5.322;2023-04-24T02:09:01;18.73;;;12.93;;
21215;SDS011;10765;50.954;5.322;2023-04-24T02:11:28;17.90;;;13.70;;
21215;SDS011;10765;50.954;5.322;2023-04-24T02:13:56;16.70;;;13.70;;
21215;SDS011;10765;50.954;5.322;2023-04-24T02:16:23;16.53;;;14.07;;
21215;SDS011;10765;50.954;5.322;2023-04-24T02:18:50;16.50;;;13.57;;
21215;SDS011;10765;50.954;5.322;2023-04-24T02:21:17;16.20;;;14.20;;
21215;SDS011;10765;50.954;5.322;2023-04-24T02:23:44;16.53;;;13.70;;
21215;SDS011;10765;50.954;5.322;2023-04-24T02:26:11;15.50;;;13.00;;
21215;SDS011;10765;50.954;5.322;2023-04-24T02:28:38;15.70;;;13.87;;
21215;SDS011;10765;50.954;5.322;2023-04-24T02:31:06;15.00;;;12.57;;
21215;SDS011;10765;50.954;5.322;2023-04-24T02:33:33;15.73;;;13.33;;
21215;SDS011;10765;50.954;5.322;2023-04-24T02:36:00;16.00;;;13.33;;
21215;SDS011;10765;50.954;5.322;2023-04-24T02:38:27;15.63;;;12.67;;
21215;SDS011;10765;50.954;5.322;2023-04-24T02:40:55;14.77;;;13.17;;
21215;SDS011;10765;50.954;5.322;2023-04-24T02:43:21;16.23;;;13.57;;
21215;SDS011;10765;50.954;5.322;2023-04-24T02:45:48;16.23;;;14.63;;
21215;SDS011;10765;50.954;5.322;2023-04-24T02:48:17;19.47;;;14.10;;
21215;SDS011;10765;50.954;5.322;2023-04-24T02:50:45;15.67;;;14.03;;
21215;SDS011;10765;50.954;5.322;2023-04-24T02:53:12;14.47;;;12.93;;
21215;SDS011;10765;50.954;5.322;2023-04-24T02:55:39;15.30;;;13.40;;
21215;SDS011;10765;50.954;5.322;2023-04-24T02:58:06;15.53;;;12.53;;
21215;SDS011;10765;50.954;5.322;2023-04-24T03:00:33;15.53;;;14.00;;
21215;SDS011;10765;50.954;5.322;2023-04-24T03:03:00;15.50;;;13.90;;
21215;SDS011;10765;50.954;5.322;2023-04-24T03:05:29;14.43;;;12.93;;
21215;SDS011;10765;50.954;5.322;2023-04-24T03:07:56;14.70;;;13.30;;
21215;SDS011;10765;50.954;5.322;2023-04-24T03:10:23;15.60;;;13.83;;
21215;SDS011;10765;50.954;5.322;2023-04-24T03:12:50;15.87;;;14.13;;
21215;SDS011;10765;50.954;5.322;2023-04-24T03:15:17;15.50;;;13.90;;
21215;SDS011;10765;50.954;5.322;2023-04-24T03:17:44;14.57;;;13.07;;
21215;SDS011;10765;50.954;5.322;2023-04-24T03:20:11;16.23;;;14.47;;
21215;SDS011;10765;50.954;5.322;2023-04-24T03:22:40;16.10;;;14.43;;
21215;SDS011;10765;50.954;5.322;2023-04-24T03:25:07;16.27;;;14.63;;
21215;SDS011;10765;50.954;5.322;2023-04-24T03:27:34;17.23;;;15.10;;
21215;SDS011;10765;50.954;5.322;2023-04-24T03:30:02;17.43;;;15.63;;
21215;SDS011;10765;50.954;5.322;2023-04-24T03:32:29;16.03;;;14.13;;
21215;SDS011;10765;50.954;5.322;2023-04-24T03:34:57;17.10;;;15.27;;
21215;SDS011;10765;50.954;5.322;2023-04-24T03:37:24;17.63;;;15.30;;
21215;SDS011;10765;50.954;5.322;2023-04-24T03:39:52;17.17;;;15.37;;
21215;SDS011;10765;50.954;5.322;2023-04-24T03:42:19;15.47;;;13.70;;
21215;SDS011;10765;50.954;5.322;2023-04-24T03:44:46;18.33;;;14.70;;
21215;SDS011;10765;50.954;5.322;2023-04-24T03:47:13;17.57;;;15.77;;
21215;SDS011;10765;50.954;5.322;2023-04-24T03:49:40;16.93;;;14.23;;
21215;SDS011;10765;50.954;5.322;2023-04-24T03:52:07;17.27;;;14.43;;
21215;SDS011;10765;50.954;5.322;2023-04-24T03:54:34;15.37;;;13.77;;
21215;SDS011;10765;50.954;5.322;2023-04-24T03:57:02;16.90;;;13.80;;
21215;SDS011;10765;50.954;5.322;2023-04-24T03:59:29;17.80;;;14.83;;
21215;SDS011;10765;50.954;5.322;2023-04-24T04:01:56;15.77;;;14.17;;
21215;SDS011;10765;50.954;5.322;2023-04-24T04:04:23;15.90;;;13.80;;
21215;SDS011;10765;50.954;5.322;2023-04-24T04:06:50;16.83;;;13.87;;
21215;SDS011;10765;50.954;5.322;2023-04-24T04:09:18;17.30;;;15.00;;
21215;SDS011;10765;50.954;5.322;2023-04-24T04:11:45;15.50;;;13.90;;
21215;SDS011;10765;50.954;5.322;2023-04-24T04:14:13;16.10;;;14.40;;
21215;SDS011;10765;50.954;5.322;2023-04-24T04:16:40;17.00;;;13.70;;
21215;SDS011;10765;50.954;5.322;2023-04-24T04:19:07;17.63;;;14.40;;
21215;SDS011;10765;50.954;5.322;2023-04-24T04:21:34;16.23;;;13.57;;
21215;SDS011;10765;50.954;5.322;2023-04-24T04:24:00;15.53;;;13.93;;
21215;SDS011;10765;50.954;5.322;2023-04-24T04:26:27;16.10;;;12.63;;
21215;SDS011;10765;50.954;5.322;2023-04-24T04:28:56;14.33;;;12.60;;
21215;SDS011;10765;50.954;5.322;2023-04-24T04:31:25;16.20;;;12.70;;
21215;SDS011;10765;50.954;5.322;2023-04-24T04:33:52;14.83;;;13.10;;
21215;SDS011;10765;50.954;5.322;2023-04-24T04:36:18;14.07;;;12.40;;
21215;SDS011;10765;50.954;5.322;2023-04-24T04:38:45;16.07;;;12.73;;
21215;SDS011;10765;50.954;5.322;2023-04-24T04:41:13;14.07;;;12.67;;
21215;SDS011;10765;50.954;5.322;2023-04-24T04:43:41;16.20;;;12.83;;
21215;SDS011;10765;50.954;5.322;2023-04-24T04:46:08;17.27;;;13.17;;
21215;SDS011;10765;50.954;5.322;2023-04-24T04:48:37;13.27;;;11.87;;
21215;SDS011;10765;50.954;5.322;2023-04-24T04:51:04;14.93;;;12.87;;
21215;SDS011;10765;50.954;5.322;2023-04-24T04:53:31;13.50;;;11.27;;
21215;SDS011;10765;50.954;5.322;2023-04-24T04:55:58;15.00;;;12.27;;
21215;SDS011;10765;50.954;5.322;2023-04-24T04:58:25;14.40;;;12.37;;
21215;SDS011;10765;50.954;5.322;2023-04-24T05:00:52;13.03;;;11.67;;
21215;SDS011;10765;50.954;5.322;2023-04-24T05:03:19;12.90;;;11.57;;
21215;SDS011;10765;50.954;5.322;2023-04-24T05:05:47;13.03;;;11.23;;
21215;SDS011;10765;50.954;5.322;2023-04-24T05:08:14;12.43;;;11.20;;
21215;SDS011;10765;50.954;5.322;2023-04-24T05:10:41;13.07;;;11.43;;
21215;SDS011;10765;50.954;5.322;2023-04-24T05:13:08;13.33;;;11.37;;
21215;SDS011;10765;50.954;5.322;2023-04-24T05:15:35;12.13;;;10.77;;
21215;SDS011;10765;50.954;5.322;2023-04-24T05:18:02;12.00;;;10.83;;
21215;SDS011;10765;50.954;5.322;2023-04-24T05:20:29;12.37;;;11.07;;
21215;SDS011;10765;50.954;5.322;2023-04-24T05:22:57;11.83;;;10.47;;
21215;SDS011;10765;50.954;5.322;2023-04-24T05:25:24;12.97;;;10.43;;
21215;SDS011;10765;50.954;5.322;2023-04-24T05:27:51;10.97;;;9.87;;
21215;SDS011;10765;50.954;5.322;2023-04-24T05:30:18;12.23;;;10.10;;
21215;SDS011;10765;50.954;5.322;2023-04-24T05:32:45;12.23;;;10.23;;
21215;SDS011;10765;50.954;5.322;2023-04-24T05:35:12;11.90;;;10.07;;
21215;SDS011;10765;50.954;5.322;2023-04-24T05:37:39;11.60;;;10.40;;
21215;SDS011;10765;50.954;5.322;2023-04-24T05:40:08;9.40;;;8.33;;
21215;SDS011;10765;50.954;5.322;2023-04-24T05:42:36;7.13;;;6.43;;
21215;SDS011;10765;50.954;5.322;2023-04-24T05:45:03;6.27;;;5.67;;
21215;SDS011;10765;50.954;5.322;2023-04-24T05:47:31;6.13;;;5.53;;
21215;SDS011;10765;50.954;5.322;2023-04-24T05:49:57;6.63;;;5.90;;
21215;SDS011;10765;50.954;5.322;2023-04-24T05:52:24;8.07;;;6.57;;
21215;SDS011;10765;50.954;5.322;2023-04-24T05:54:51;8.50;;;6.60;;
21215;SDS011;10765;50.954;5.322;2023-04-24T05:57:19;9.20;;;7.03;;
21215;SDS011;10765;50.954;5.322;2023-04-24T05:59:46;8.87;;;7.97;;
21215;SDS011;10765;50.954;5.322;2023-04-24T06:02:13;9.37;;;8.33;;
21215;SDS011;10765;50.954;5.322;2023-04-24T06:04:40;12.23;;;9.33;;
21215;SDS011;10765;50.954;5.322;2023-04-24T06:07:07;11.70;;;8.40;;
21215;SDS011;10765;50.954;5.322;2023-04-24T06:09:34;9.83;;;8.83;;
21215;SDS011;10765;50.954;5.322;2023-04-24T06:12:01;13.20;;;9.93;;
21215;SDS011;10765;50.954;5.322;2023-04-24T06:14:29;11.13;;;9.93;;
21215;SDS011;10765;50.954;5.322;2023-04-24T06:16:56;12.43;;;11.13;;
21215;SDS011;10765;50.954;5.322;2023-04-24T06:19:23;13.87;;;11.50;;
21215;SDS011;10765;50.954;5.322;2023-04-24T06:21:50;12.40;;;11.10;;
21215;SDS011;10765;50.954;5.322;2023-04-24T06:24:17;13.83;;;12.20;;
21215;SDS011;10765;50.954;5.322;2023-04-24T06:26:44;14.23;;;12.73;;
21215;SDS011;10765;50.954;5.322;2023-04-24T06:29:11;16.37;;;11.80;;
21215;SDS011;10765;50.954;5.322;2023-04-24T06:31:39;12.50;;;11.10;;
21215;SDS011;10765;50.954;5.322;2023-04-24T06:34:06;11.10;;;10.00;;
21215;SDS011;10765;50.954;5.322;2023-04-24T06:36:33;12.03;;;9.83;;
21215;SDS011;10765;50.954;5.322;2023-04-24T06:39:01;11.87;;;9.70;;
21215;SDS011;10765;50.954;5.322;2023-04-24T06:41:28;11.07;;;8.87;;
21215;SDS011;10765;50.954;5.322;2023-04-24T06:43:55;10.17;;;9.13;;
21215;SDS011;10765;50.954;5.322;2023-04-24T06:46:22;10.90;;;9.40;;
21215;SDS011;10765;50.954;5.322;2023-04-24T06:48:52;11.20;;;9.57;;
21215;SDS011;10765;50.954;5.322;2023-04-24T06:51:21;10.47;;;9.27;;
21215;SDS011;10765;50.954;5.322;2023-04-24T06:53:48;10.60;;;9.53;;
21215;SDS011;10765;50.954;5.322;2023-04-24T06:56:15;12.27;;;9.67;;
21215;SDS011;10765;50.954;5.322;2023-04-24T06:58:43;13.13;;;10.67;;
21215;SDS011;10765;50.954;5.322;2023-04-24T07:01:10;13.33;;;10.83;;
21215;SDS011;10765;50.954;5.322;2023-04-24T07:03:37;16.33;;;11.30;;
21215;SDS011;10765;50.954;5.322;2023-04-24T07:06:05;15.40;;;11.70;;
21215;SDS011;10765;50.954;5.322;2023-04-24T07:08:32;15.47;;;11.83;;
21215;SDS011;10765;50.954;5.322;2023-04-24T07:11:00;15.20;;;11.73;;
21215;SDS011;10765;50.954;5.322;2023-04-24T07:13:27;15.87;;;11.83;;
21215;SDS011;10765;50.954;5.322;2023-04-24T07:15:54;16.57;;;12.90;;
21215;SDS011;10765;50.954;5.322;2023-04-24T07:18:21;15.80;;;13.23;;
21215;SDS011;10765;50.954;5.322;2023-04-24T07:20:48;17.13;;;14.27;;
21215;SDS011;10765;50.954;5.322;2023-04-24T07:23:17;19.27;;;15.57;;
21215;SDS011;10765;50.954;5.322;2023-04-24T07:25:44;18.73;;;15.60;;
21215;SDS011;10765;50.954;5.322;2023-04-24T07:28:11;19.33;;;16.13;;
21215;SDS011;10765;50.954;5.322;2023-04-24T07:30:38;20.07;;;15.83;;
21215;SDS011;10765;50.954;5.322;2023-04-24T07:33:05;18.03;;;16.03;;
21215;SDS011;10765;50.954;5.322;2023-04-24T07:35:32;17.30;;;15.13;;
21215;SDS011;10765;50.954;5.322;2023-04-24T07:38:00;18.73;;;15.90;;
21215;SDS011;10765;50.954;5.322;2023-04-24T07:40:28;16.50;;;14.83;;
21215;SDS011;10765;50.954;5.322;2023-04-24T07:42:55;19.33;;;15.10;;
21215;SDS011;10765;50.954;5.322;2023-04-24T07:45:22;19.23;;;15.17;;
21215;SDS011;10765;50.954;5.322;2023-04-24T07:47:51;18.57;;;14.83;;
21215;SDS011;10765;50.954;5.322;2023-04-24T07:50:18;15.20;;;13.37;;
21215;SDS011;10765;50.954;5.322;2023-04-24T07:52:45;15.50;;;13.90;;
21215;SDS011;10765;50.954;5.322;2023-04-24T07:55:12;15.47;;;13.80;;
21215;SDS011;10765;50.954;5.322;2023-04-24T07:57:41;16.37;;;14.60;;
21215;SDS011;10765;50.954;5.322;2023-04-24T08:00:08;15.57;;;13.90;;
21215;SDS011;10765;50.954;5.322;2023-04-24T08:02:35;16.77;;;14.70;;
21215;SDS011;10765;50.954;5.322;2023-04-24T08:05:02;17.73;;;15.77;;
21215;SDS011;10765;50.954;5.322;2023-04-24T08:07:30;22.40;;;17.53;;
21215;SDS011;10765;50.954;5.322;2023-04-24T08:09:57;19.90;;;17.30;;
21215;SDS011;10765;50.954;5.322;2023-04-24T08:12:24;19.53;;;17.43;;
21215;SDS011;10765;50.954;5.322;2023-04-24T08:14:52;23.87;;;19.07;;
21215;SDS011;10765;50.954;5.322;2023-04-24T08:17:19;21.20;;;17.33;;
21215;SDS011;10765;50.954;5.322;2023-04-24T08:19:46;20.60;;;16.23;;
21215;SDS011;10765;50.954;5.322;2023-04-24T08:22:13;18.53;;;14.07;;
21215;SDS011;10765;50.954;5.322;2023-04-24T08:24:41;19.63;;;13.43;;
21215;SDS011;10765;50.954;5.322;2023-04-24T08:27:08;17.70;;;13.57;;
21215;SDS011;10765;50.954;5.322;2023-04-24T08:29:35;15.70;;;13.67;;
21215;SDS011;10765;50.954;5.322;2023-04-24T08:32:04;17.80;;;13.43;;
21215;SDS011;10765;50.954;5.322;2023-04-24T08:34:31;18.27;;;13.40;;
21215;SDS011;10765;50.954;5.322;2023-04-24T08:36:58;18.20;;;13.63;;
21215;SDS011;10765;50.954;5.322;2023-04-24T08:39:25;15.77;;;11.53;;
21215;SDS011;10765;50.954;5.322;2023-04-24T08:41:52;14.97;;;11.93;;
21215;SDS011;10765;50.954;5.322;2023-04-24T08:44:19;16.73;;;12.03;;
21215;SDS011;10765;50.954;5.322;2023-04-24T08:46:46;18.93;;;11.77;;
21215;SDS011;10765;50.954;5.322;2023-04-24T08:49:17;13.13;;;10.50;;
21215;SDS011;10765;50.954;5.322;2023-04-24T08:51:45;11.53;;;10.20;;
21215;SDS011;10765;50.954;5.322;2023-04-24T08:54:13;14.47;;;9.70;;
21215;SDS011;10765;50.954;5.322;2023-04-24T08:56:40;13.23;;;9.50;;
21215;SDS011;10765;50.954;5.322;2023-04-24T08:59:10;13.60;;;9.20;;
21215;SDS011;10765;50.954;5.322;2023-04-24T09:01:38;14.43;;;7.60;;
21215;SDS011;10765;50.954;5.322;2023-04-24T09:04:06;10.97;;;7.10;;
21215;SDS011;10765;50.954;5.322;2023-04-24T09:06:37;10.33;;;6.90;;
21215;SDS011;10765;50.954;5.322;2023-04-24T09:09:04;14.70;;;7.43;;
21215;SDS011;10765;50.954;5.322;2023-04-24T09:11:31;9.10;;;6.93;;
21215;SDS011;10765;50.954;5.322;2023-04-24T09:13:58;11.90;;;7.27;;
21215;SDS011;10765;50.954;5.322;2023-04-24T09:16:26;11.40;;;7.03;;
21215;SDS011;10765;50.954;5.322;2023-04-24T09:18:54;9.57;;;6.20;;
21215;SDS011;10765;50.954;5.322;2023-04-24T09:21:22;13.07;;;7.00;;
21215;SDS011;10765;50.954;5.322;2023-04-24T09:23:59;10.00;;;6.40;;
21215;SDS011;10765;50.954;5.322;2023-04-24T09:26:28;11.00;;;6.03;;
21215;SDS011;10765;50.954;5.322;2023-04-24T09:28:57;9.80;;;5.37;;
21215;SDS011;10765;50.954;5.322;2023-04-24T09:31:26;10.73;;;4.90;;
21215;SDS011;10765;50.954;5.322;2023-04-24T09:33:55;8.80;;;5.57;;
21215;SDS011;10765;50.954;5.322;2023-04-24T09:36:27;9.17;;;5.60;;
21215;SDS011;10765;50.954;5.322;2023-04-24T09:38:58;12.03;;;5.80;;
21215;SDS011;10765;50.954;5.322;2023-04-24T09:41:26;9.63;;;5.67;;
21215;SDS011;10765;50.954;5.322;2023-04-24T09:43:54;8.40;;;5.10;;
21215;SDS011;10765;50.954;5.322;2023-04-24T09:46:21;7.60;;;5.67;;
21215;SDS011;10765;50.954;5.322;2023-04-24T09:48:56;8.57;;;5.43;;
21215;SDS011;10765;50.954;5.322;2023-04-24T09:51:33;8.97;;;6.07;;
21215;SDS011;10765;50.954;5.322;2023-04-24T09:54:03;9.53;;;5.70;;
21215;SDS011;10765;50.954;5.322;2023-04-24T09:56:32;9.03;;;5.80;;
21215;SDS011;10765;50.954;5.322;2023-04-24T09:59:06;11.97;;;5.80;;
21215;SDS011;10765;50.954;5.322;2023-04-24T10:01:33;12.27;;;5.73;;
21215;SDS011;10765;50.954;5.322;2023-04-24T10:04:01;7.63;;;5.70;;
21215;SDS011;10765;50.954;5.322;2023-04-24T10:06:32;9.63;;;6.33;;
21215;SDS011;10765;50.954;5.322;2023-04-24T10:09:00;11.50;;;6.33;;
21215;SDS011;10765;50.954;5.322;2023-04-24T10:11:30;16.67;;;7.10;;
21215;SDS011;10765;50.954;5.322;2023-04-24T10:13:57;11.03;;;6.70;;
21215;SDS011;10765;50.954;5.322;2023-04-24T10:16:24;9.30;;;5.73;;
21215;SDS011;10765;50.954;5.322;2023-04-24T10:18:53;9.27;;;5.40;;
21215;SDS011;10765;50.954;5.322;2023-04-24T10:21:21;11.90;;;6.20;;
21215;SDS011;10765;50.954;5.322;2023-04-24T10:23:48;11.03;;;6.37;;
21215;SDS011;10765;50.954;5.322;2023-04-24T10:26:16;8.13;;;6.13;;
21215;SDS011;10765;50.954;5.322;2023-04-24T10:28:46;14.90;;;6.40;;
21215;SDS011;10765;50.954;5.322;2023-04-24T10:31:13;10.50;;;6.57;;
21215;SDS011;10765;50.954;5.322;2023-04-24T10:33:41;10.40;;;6.77;;
21215;SDS011;10765;50.954;5.322;2023-04-24T10:36:09;9.57;;;6.67;;
21215;SDS011;10765;50.954;5.322;2023-04-24T10:38:37;9.17;;;6.23;;
21215;SDS011;10765;50.954;5.322;2023-04-24T10:41:07;8.67;;;6.30;;
21215;SDS011;10765;50.954;5.322;2023-04-24T10:43:37;9.10;;;6.83;;
21215;SDS011;10765;50.954;5.322;2023-04-24T10:46:08;10.47;;;7.30;;
21215;SDS011;10765;50.954;5.322;2023-04-24T10:48:36;11.90;;;6.83;;
21215;SDS011;10765;50.954;5.322;2023-04-24T10:51:10;10.23;;;6.90;;
21215;SDS011;10765;50.954;5.322;2023-04-24T10:53:39;11.37;;;7.23;;
21215;SDS011;10765;50.954;5.322;2023-04-24T10:56:06;9.70;;;6.67;;
21215;SDS011;10765;50.954;5.322;2023-04-24T10:58:36;12.27;;;7.00;;
21215;SDS011;10765;50.954;5.322;2023-04-24T11:01:05;11.47;;;6.93;;
21215;SDS011;10765;50.954;5.322;2023-04-24T11:03:34;8.73;;;6.90;;
21215;SDS011;10765;50.954;5.322;2023-04-24T11:06:03;10.17;;;6.57;;
21215;SDS011;10765;50.954;5.322;2023-04-24T11:08:32;11.97;;;6.83;;
21215;SDS011;10765;50.954;5.322;2023-04-24T11:11:03;10.70;;;7.13;;
21215;SDS011;10765;50.954;5.322;2023-04-24T11:16:34;11.67;;;6.73;;
21215;SDS011;10765;50.954;5.322;2023-04-24T11:19:07;10.90;;;6.47;;
21215;SDS011;10765;50.954;5.322;2023-04-24T11:21:40;12.33;;;6.33;;
21215;SDS011;10765;50.954;5.322;2023-04-24T11:24:24;11.00;;;7.13;;
21215;SDS011;10765;50.954;5.322;2023-04-24T11:26:52;10.07;;;6.97;;
21215;SDS011;10765;50.954;5.322;2023-04-24T11:29:21;11.83;;;6.53;;
21215;SDS011;10765;50.954;5.322;2023-04-24T11:31:49;9.77;;;6.43;;
21215;SDS011;10765;50.954;5.322;2023-04-24T11:34:18;10.90;;;6.13;;
21215;SDS011;10765;50.954;5.322;2023-04-24T11:36:45;9.87;;;6.97;;
21215;SDS011;10765;50.954;5.322;2023-04-24T11:39:12;10.60;;;6.50;;
21215;SDS011;10765;50.954;5.322;2023-04-24T11:41:39;9.67;;;6.37;;
21215;SDS011;10765;50.954;5.322;2023-04-24T11:44:06;8.70;;;5.00;;
21215;SDS011;10765;50.954;5.322;2023-04-24T11:46:34;7.63;;;4.87;;
21215;SDS011;10765;50.954;5.322;2023-04-24T11:49:02;6.57;;;4.67;;
21215;SDS011;10765;50.954;5.322;2023-04-24T11:51:31;6.33;;;4.93;;
21215;SDS011;10765;50.954;5.322;2023-04-24T11:53:58;8.17;;;5.00;;
21215;SDS011;10765;50.954;5.322;2023-04-24T11:56:25;7.20;;;4.53;;
21215;SDS011;10765;50.954;5.322;2023-04-24T11:58:52;9.03;;;5.10;;
21215;SDS011;10765;50.954;5.322;2023-04-24T12:01:20;7.90;;;4.80;;
21215;SDS011;10765;50.954;5.322;2023-04-24T12:03:47;9.47;;;4.73;;
21215;SDS011;10765;50.954;5.322;2023-04-24T12:06:16;5.73;;;4.37;;
21215;SDS011;10765;50.954;5.322;2023-04-24T12:08:47;7.13;;;4.80;;
21215;SDS011;10765;50.954;5.322;2023-04-24T12:11:15;6.35;;;4.40;;
21215;SDS011;10765;50.954;5.322;2023-04-24T12:13:44;6.87;;;4.13;;
21215;SDS011;10765;50.954;5.322;2023-04-24T12:16:11;5.73;;;4.30;;
21215;SDS011;10765;50.954;5.322;2023-04-24T12:18:41;13.20;;;4.13;;
21215;SDS011;10765;50.954;5.322;2023-04-24T12:21:16;6.70;;;4.00;;
21215;SDS011;10765;50.954;5.322;2023-04-24T12:23:44;5.83;;;3.80;;
21215;SDS011;10765;50.954;5.322;2023-04-24T12:26:15;6.37;;;3.93;;
21215;SDS011;10765;50.954;5.322;2023-04-24T12:28:45;10.40;;;4.37;;
21215;SDS011;10765;50.954;5.322;2023-04-24T12:31:13;9.53;;;4.57;;
21215;SDS011;10765;50.954;5.322;2023-04-24T12:33:40;6.53;;;4.57;;
21215;SDS011;10765;50.954;5.322;2023-04-24T12:36:09;6.63;;;4.10;;
21215;SDS011;10765;50.954;5.322;2023-04-24T12:38:37;6.87;;;5.20;;
21215;SDS011;10765;50.954;5.322;2023-04-24T12:41:08;7.87;;;5.10;;
21215;SDS011;10765;50.954;5.322;2023-04-24T12:43:36;6.50;;;4.40;;
21215;SDS011;10765;50.954;5.322;2023-04-24T12:46:03;6.63;;;4.13;;
21215;SDS011;10765;50.954;5.322;2023-04-24T12:48:30;5.20;;;4.07;;
21215;SDS011;10765;50.954;5.322;2023-04-24T12:50:57;5.67;;;3.90;;
21215;SDS011;10765;50.954;5.322;2023-04-24T12:53:26;8.57;;;4.27;;
21215;SDS011;10765;50.954;5.322;2023-04-24T12:55:56;7.10;;;3.93;;
21215;SDS011;10765;50.954;5.322;2023-04-24T12:58:24;4.93;;;3.60;;
21215;SDS011;10765;50.954;5.322;2023-04-24T13:00:51;6.37;;;3.80;;
21215;SDS011;10765;50.954;5.322;2023-04-24T13:03:18;5.50;;;4.10;;
21215;SDS011;10765;50.954;5.322;2023-04-24T13:05:47;5.77;;;3.67;;
21215;SDS011;10765;50.954;5.322;2023-04-24T13:08:14;5.27;;;3.50;;
21215;SDS011;10765;50.954;5.322;2023-04-24T13:10:41;4.10;;;3.70;;
21215;SDS011;10765;50.954;5.322;2023-04-24T13:13:08;7.80;;;3.70;;
21215;SDS011;10765;50.954;5.322;2023-04-24T13:15:36;5.33;;;3.60;;
21215;SDS011;10765;50.954;5.322;2023-04-24T13:18:03;4.93;;;3.77;;
21215;SDS011;10765;50.954;5.322;2023-04-24T13:20:30;5.10;;;3.50;;
21215;SDS011;10765;50.954;5.322;2023-04-24T13:22:57;6.70;;;3.90;;
21215;SDS011;10765;50.954;5.322;2023-04-24T13:25:25;6.03;;;3.67;;
21215;SDS011;10765;50.954;5.322;2023-04-24T13:27:52;5.07;;;3.37;;
21215;SDS011;10765;50.954;5.322;2023-04-24T13:30:19;6.23;;;3.60;;
21215;SDS011;10765;50.954;5.322;2023-04-24T13:32:47;5.47;;;3.60;;
21215;SDS011;10765;50.954;5.322;2023-04-24T13:35:14;4.83;;;3.70;;
21215;SDS011;10765;50.954;5.322;2023-04-24T13:37:41;6.40;;;3.83;;
21215;SDS011;10765;50.954;5.322;2023-04-24T13:40:08;4.83;;;3.80;;
21215;SDS011;10765;50.954;5.322;2023-04-24T13:42:35;5.47;;;3.77;;
21215;SDS011;10765;50.954;5.322;2023-04-24T13:45:03;6.67;;;3.77;;
21215;SDS011;10765;50.954;5.322;2023-04-24T13:47:30;5.83;;;3.80;;
21215;SDS011;10765;50.954;5.322;2023-04-24T13:49:58;7.70;;;3.80;;
21215;SDS011;10765;50.954;5.322;2023-04-24T13:52:25;6.73;;;4.10;;
21215;SDS011;10765;50.954;5.322;2023-04-24T13:54:52;5.33;;;3.67;;
21215;SDS011;10765;50.954;5.322;2023-04-24T13:57:20;5.47;;;3.80;;
21215;SDS011;10765;50.954;5.322;2023-04-24T13:59:47;4.30;;;3.13;;
21215;SDS011;10765;50.954;5.322;2023-04-24T14:02:14;6.57;;;3.50;;
21215;SDS011;10765;50.954;5.322;2023-04-24T14:04:41;5.10;;;3.30;;
21215;SDS011;10765;50.954;5.322;2023-04-24T14:07:09;6.37;;;3.13;;
21215;SDS011;10765;50.954;5.322;2023-04-24T14:09:36;5.50;;;3.30;;
21215;SDS011;10765;50.954;5.322;2023-04-24T14:12:03;5.77;;;3.20;;
21215;SDS011;10765;50.954;5.322;2023-04-24T14:14:30;12.10;;;7.00;;
21215;SDS011;10765;50.954;5.322;2023-04-24T14:16:57;7.17;;;4.10;;
21215;SDS011;10765;50.954;5.322;2023-04-24T14:19:24;6.40;;;3.53;;
21215;SDS011;10765;50.954;5.322;2023-04-24T14:21:51;4.80;;;3.57;;
21215;SDS011;10765;50.954;5.322;2023-04-24T14:24:20;6.07;;;3.27;;
21215;SDS011;10765;50.954;5.322;2023-04-24T14:26:47;5.53;;;2.90;;
21215;SDS011;10765;50.954;5.322;2023-04-24T14:29:13;4.30;;;3.27;;
21215;SDS011;10765;50.954;5.322;2023-04-24T14:31:41;4.07;;;2.70;;
21215;SDS011;10765;50.954;5.322;2023-04-24T14:34:08;4.10;;;3.23;;
21215;SDS011;10765;50.954;5.322;2023-04-24T14:36:35;5.00;;;3.27;;